createdAt,value
2018-06-10T00:01:10.753Z,10.70
2018-06-10T00:03:38.580Z,10.40
2018-06-10T00:06:06.391Z,10.60
2018-06-10T00:08:34.990Z,11.30
2018-06-10T00:11:02.937Z,10.63
2018-06-10T00:13:30.949Z,11.63
2018-06-10T00:15:58.780Z,10.70
2018-06-10T00:18:26.658Z,10.73
2018-06-10T00:20:55.445Z,11.00
2018-06-10T00:23:23.445Z,11.90
2018-06-10T00:25:51.252Z,12.00
2018-06-10T00:28:24.233Z,12.33
2018-06-10T00:30:52.268Z,12.37
2018-06-10T00:33:20.267Z,13.00
2018-06-10T00:35:48.078Z,12.33
2018-06-10T00:38:15.907Z,11.87
2018-06-10T00:40:43.871Z,13.53
2018-06-10T00:43:12.480Z,12.20
2018-06-10T00:45:40.288Z,12.20
2018-06-10T00:48:08.132Z,11.87
2018-06-10T00:50:36.062Z,11.93
2018-06-10T00:53:03.960Z,13.00
2018-06-10T00:55:31.935Z,11.93
2018-06-10T00:58:01.134Z,13.93
2018-06-10T01:00:29.100Z,15.30
2018-06-10T01:02:56.853Z,15.40
2018-06-10T01:05:24.864Z,17.03
2018-06-10T01:07:53.433Z,18.27
2018-06-10T01:10:21.318Z,20.13
2018-06-10T01:12:49.356Z,19.33
2018-06-10T01:15:17.972Z,20.80
2018-06-10T01:17:45.810Z,19.07
2018-06-10T01:20:13.508Z,19.40
2018-06-10T01:22:41.253Z,17.50
2018-06-10T01:25:09.191Z,18.33
2018-06-10T01:27:37.213Z,17.37
2018-06-10T01:30:05.204Z,17.50
2018-06-10T01:32:33.014Z,17.93
2018-06-10T01:35:00.868Z,18.50
2018-06-10T01:37:28.707Z,17.80
2018-06-10T01:39:56.869Z,18.20
2018-06-10T01:42:24.640Z,20.30
2018-06-10T01:44:52.642Z,20.23
2018-06-10T01:47:20.706Z,20.63
2018-06-10T01:49:48.683Z,20.07
2018-06-10T01:52:16.596Z,18.83
2018-06-10T01:54:44.514Z,19.80
2018-06-10T01:57:12.339Z,18.10
2018-06-10T01:59:40.264Z,20.47
2018-06-10T02:02:07.982Z,21.57
2018-06-10T02:04:35.892Z,20.27
2018-06-10T02:07:04.528Z,19.47
2018-06-10T02:09:32.339Z,19.90
2018-06-10T02:12:00.053Z,21.13
2018-06-10T02:14:28.152Z,23.73
2018-06-10T02:16:56.116Z,26.00
2018-06-10T02:19:24.049Z,27.10
2018-06-10T02:21:51.923Z,27.03
2018-06-10T02:24:19.696Z,25.57
2018-06-10T02:26:47.703Z,26.80
2018-06-10T02:29:15.683Z,29.33
2018-06-10T02:31:43.653Z,28.57
2018-06-10T02:34:11.521Z,29.20
2018-06-10T02:36:39.926Z,27.77
2018-06-10T02:39:07.729Z,28.20
2018-06-10T02:41:35.508Z,26.20
2018-06-10T02:44:03.404Z,26.17
2018-06-10T02:46:31.071Z,27.90
2018-06-10T02:48:59.164Z,26.83
2018-06-10T02:51:27.123Z,27.70
2018-06-10T02:53:54.997Z,27.10
2018-06-10T02:56:23.970Z,30.07
2018-06-10T02:58:52.592Z,29.07
2018-06-10T03:01:20.572Z,32.10
2018-06-10T03:03:48.425Z,28.90
2018-06-10T03:06:16.049Z,27.87
2018-06-10T03:08:43.904Z,27.53
2018-06-10T03:11:11.716Z,25.87
2018-06-10T03:13:39.539Z,30.80
2018-06-10T03:16:07.507Z,29.47
2018-06-10T03:18:35.332Z,26.97
2018-06-10T03:21:03.144Z,28.10
2018-06-10T03:23:30.982Z,31.00
2018-06-10T03:25:58.766Z,28.40
2018-06-10T03:28:26.579Z,26.70
2018-06-10T03:30:54.296Z,27.13
2018-06-10T03:33:22.080Z,25.10
2018-06-10T03:35:50.562Z,25.70
2018-06-10T03:38:18.643Z,25.10
2018-06-10T03:40:46.488Z,23.50
2018-06-10T03:43:14.275Z,21.87
2018-06-10T03:45:42.297Z,20.00
2018-06-10T03:48:10.204Z,21.30
2018-06-10T03:50:38.247Z,20.90
2018-06-10T03:53:06.064Z,19.80
2018-06-10T03:55:33.721Z,19.73
2018-06-10T03:58:01.528Z,19.47
2018-06-10T04:00:29.380Z,20.17
2018-06-10T04:02:57.656Z,17.83
2018-06-10T04:05:25.333Z,19.20
2018-06-10T04:07:53.431Z,18.07
2018-06-10T04:10:21.416Z,17.43
2018-06-10T04:12:49.243Z,18.57
2018-06-10T04:15:17.088Z,16.70
2018-06-10T04:17:45.010Z,17.87
2018-06-10T04:20:12.907Z,17.43
2018-06-10T04:22:41.046Z,17.03
2018-06-10T04:25:08.930Z,17.00
2018-06-10T04:27:36.945Z,17.17
2018-06-10T04:30:04.848Z,17.17
2018-06-10T04:32:32.764Z,14.50
2018-06-10T04:35:00.652Z,15.13
2018-06-10T04:37:28.827Z,15.70
2018-06-10T04:39:57.419Z,18.07
2018-06-10T04:42:25.256Z,23.77
2018-06-10T04:44:53.319Z,21.87
2018-06-10T04:47:21.397Z,20.63
2018-06-10T04:49:49.279Z,21.30
2018-06-10T04:52:17.879Z,21.10
2018-06-10T04:54:45.711Z,19.33
2018-06-10T04:57:14.046Z,17.03
2018-06-10T04:59:42.256Z,18.00
2018-06-10T05:02:10.104Z,17.93
2018-06-10T05:04:38.038Z,17.70
2018-06-10T05:07:05.880Z,18.10
2018-06-10T05:09:33.685Z,18.70
2018-06-10T05:12:01.638Z,18.40
2018-06-10T05:14:29.628Z,17.90
2018-06-10T05:16:57.611Z,19.47
2018-06-10T05:19:26.254Z,17.30
2018-06-10T05:21:54.157Z,15.53
2018-06-10T05:24:22.019Z,15.60
2018-06-10T05:26:49.845Z,14.60
2018-06-10T05:29:17.820Z,14.20
2018-06-10T05:31:45.601Z,13.37
2018-06-10T05:34:13.432Z,12.00
2018-06-10T05:36:41.404Z,11.87
2018-06-10T05:39:09.288Z,10.30
2018-06-10T05:41:37.247Z,9.77
2018-06-10T05:44:05.324Z,9.20
2018-06-10T05:46:33.276Z,9.40
2018-06-10T05:49:01.660Z,8.40
2018-06-10T05:51:29.529Z,8.30
2018-06-10T05:53:58.199Z,8.90
2018-06-10T05:56:26.019Z,9.50
2018-06-10T05:58:53.803Z,7.60
2018-06-10T06:01:21.664Z,8.20
2018-06-10T06:03:49.609Z,8.90
2018-06-10T06:06:17.296Z,8.03
2018-06-10T06:08:46.292Z,7.20
2018-06-10T06:11:14.128Z,7.50
2018-06-10T06:13:41.943Z,8.20
2018-06-10T06:16:09.803Z,8.27
2018-06-10T06:18:37.575Z,8.07
2018-06-10T06:21:05.571Z,8.90
2018-06-10T06:23:33.365Z,10.70
2018-06-10T06:26:01.831Z,11.80
2018-06-10T06:28:29.787Z,11.73
2018-06-10T06:30:57.782Z,13.23
2018-06-10T06:33:25.746Z,13.93
2018-06-10T06:35:53.611Z,13.00
2018-06-10T06:38:21.694Z,18.30
2018-06-10T06:40:49.679Z,22.37
2018-06-10T06:43:17.640Z,18.63
2018-06-10T06:45:46.383Z,13.40
2018-06-10T06:48:14.024Z,11.03
2018-06-10T06:50:41.731Z,9.10
2018-06-10T06:53:09.844Z,8.80
2018-06-10T06:55:37.704Z,7.67
2018-06-10T06:58:05.524Z,7.63
2018-06-10T07:00:33.470Z,7.90
2018-06-10T07:03:01.464Z,7.57
2018-06-10T07:05:29.455Z,7.27
2018-06-10T07:07:57.299Z,6.53
2018-06-10T07:10:25.366Z,5.87
2018-06-10T07:12:53.320Z,6.00
2018-06-10T07:15:21.132Z,5.90
2018-06-10T07:17:48.971Z,5.60
2018-06-10T07:20:16.792Z,6.00
2018-06-10T07:22:45.245Z,5.30
2018-06-10T07:25:13.132Z,5.50
2018-06-10T07:27:41.216Z,6.30
2018-06-10T07:30:08.980Z,5.50
2018-06-10T07:32:36.836Z,5.93
2018-06-10T07:35:05.600Z,6.17
2018-06-10T07:37:33.440Z,5.10
2018-06-10T07:40:01.340Z,5.80
2018-06-10T07:42:29.886Z,5.40
2018-06-10T07:44:57.911Z,5.40
2018-06-10T07:47:26.505Z,5.63
2018-06-10T07:49:54.504Z,5.70
2018-06-10T07:52:22.953Z,5.67
2018-06-10T07:54:51.668Z,5.50
2018-06-10T07:57:19.603Z,5.37
2018-06-10T07:59:48.223Z,5.80
2018-06-10T08:02:16.112Z,5.80
2018-06-10T08:04:43.940Z,5.80
2018-06-10T08:07:11.801Z,6.10
2018-06-10T08:09:39.755Z,6.63
2018-06-10T08:12:08.394Z,6.00
2018-06-10T08:14:36.252Z,5.33
2018-06-10T08:17:04.020Z,5.23
2018-06-10T08:19:32.654Z,5.87
2018-06-10T08:22:00.596Z,6.00
2018-06-10T08:24:28.437Z,6.00
2018-06-10T08:26:56.159Z,6.40
2018-06-10T08:29:24.228Z,8.33
2018-06-10T08:31:52.832Z,6.60
2018-06-10T08:34:20.768Z,6.30
2018-06-10T08:36:48.661Z,6.33
2018-06-10T08:39:16.619Z,6.30
2018-06-10T08:41:45.060Z,5.87
2018-06-10T08:44:12.973Z,6.93
2018-06-10T08:46:40.869Z,5.90
2018-06-10T08:49:08.919Z,5.80
2018-06-10T08:51:36.920Z,6.60
2018-06-10T08:54:05.548Z,7.60
2018-06-10T08:56:34.123Z,6.60
2018-06-10T08:59:02.028Z,5.70
2018-06-10T09:01:30.494Z,7.03
2018-06-10T09:03:58.873Z,6.40
2018-06-10T09:06:27.381Z,6.17
2018-06-10T09:08:55.247Z,6.60
2018-06-10T09:11:22.912Z,6.60
2018-06-10T09:13:50.813Z,6.30
2018-06-10T09:16:18.667Z,7.07
2018-06-10T09:18:46.460Z,7.70
2018-06-10T09:21:14.205Z,7.90
2018-06-10T09:23:42.357Z,8.73
2018-06-10T09:26:10.201Z,9.10
2018-06-10T09:28:38.183Z,8.37
2018-06-10T09:31:05.996Z,8.00
2018-06-10T09:33:33.807Z,8.13
2018-06-10T09:36:01.759Z,6.93
2018-06-10T09:38:30.356Z,7.13
2018-06-10T09:40:58.188Z,7.30
2018-06-10T09:43:26.637Z,6.37
2018-06-10T09:45:54.686Z,6.10
2018-06-10T09:48:22.689Z,6.57
2018-06-10T09:50:50.656Z,6.57
2018-06-10T09:53:19.557Z,5.77
2018-06-10T09:55:48.845Z,8.77
2018-06-10T09:58:16.891Z,8.20
2018-06-10T10:00:44.736Z,11.97
2018-06-10T10:03:12.877Z,11.47
2018-06-10T10:05:40.936Z,15.43
2018-06-10T10:08:08.945Z,14.30
2018-06-10T10:10:36.961Z,15.03
2018-06-10T10:13:04.729Z,15.67
2018-06-10T10:15:32.593Z,15.03
2018-06-10T10:18:00.477Z,15.57
2018-06-10T10:20:29.876Z,15.17
2018-06-10T10:22:57.603Z,14.77
2018-06-10T10:25:25.609Z,13.80
2018-06-10T10:27:53.605Z,14.80
2018-06-10T10:30:22.554Z,13.20
2018-06-10T10:32:50.422Z,12.00
2018-06-10T10:35:18.356Z,12.47
2018-06-10T10:37:46.484Z,10.90
2018-06-10T10:40:14.426Z,12.00
2018-06-10T10:42:42.263Z,10.90
2018-06-10T10:45:10.369Z,11.90
2018-06-10T10:47:38.625Z,10.93
2018-06-10T10:50:06.936Z,10.60
2018-06-10T10:52:34.863Z,10.90
2018-06-10T10:55:03.512Z,10.20
2018-06-10T10:57:32.069Z,11.43
2018-06-10T11:00:00.886Z,11.90
2018-06-10T11:02:29.886Z,11.40
2018-06-10T11:04:58.653Z,11.10
2018-06-10T11:07:27.023Z,11.30
2018-06-10T11:09:55.146Z,11.23
2018-06-10T11:12:22.868Z,12.33
2018-06-10T11:14:50.989Z,12.07
2018-06-10T11:17:21.801Z,11.10
2018-06-10T11:19:49.568Z,10.30
2018-06-10T11:22:17.848Z,9.40
2018-06-10T11:24:46.544Z,8.40
2018-06-10T11:27:15.665Z,8.93
2018-06-10T11:29:44.621Z,8.20
2018-06-10T11:32:12.640Z,8.83
2018-06-10T11:34:41.216Z,9.30
2018-06-10T11:37:09.994Z,9.47
2018-06-10T11:39:39.832Z,10.50
2018-06-10T11:42:07.931Z,10.13
2018-06-10T11:44:35.893Z,11.80
2018-06-10T11:47:03.933Z,12.67
2018-06-10T11:49:31.791Z,11.70
2018-06-10T11:52:00.522Z,11.17
2018-06-10T11:54:30.159Z,12.03
2018-06-10T11:56:59.625Z,11.37
2018-06-10T11:59:27.724Z,11.70
2018-06-10T12:01:55.695Z,11.87
2018-06-10T12:04:23.703Z,11.00
2018-06-10T12:06:51.759Z,10.40
2018-06-10T12:09:21.070Z,11.40
2018-06-10T12:11:48.935Z,10.00
2018-06-10T12:14:17.876Z,10.30
2018-06-10T12:16:45.643Z,10.03
2018-06-10T12:19:13.886Z,10.27
2018-06-10T12:21:42.054Z,9.90
2018-06-10T12:24:09.932Z,10.90
2018-06-10T12:26:37.963Z,9.83
2018-06-10T12:29:05.816Z,9.70
2018-06-10T12:31:33.629Z,10.57
2018-06-10T12:34:01.602Z,13.57
2018-06-10T12:36:29.435Z,10.33
2018-06-10T12:38:57.262Z,10.90
2018-06-10T12:41:25.223Z,11.00
2018-06-10T12:43:53.084Z,11.77
2018-06-10T12:46:21.759Z,10.77
2018-06-10T12:48:49.629Z,11.77
2018-06-10T12:51:17.436Z,10.30
2018-06-10T12:53:46.334Z,11.40
2018-06-10T12:56:14.229Z,11.90
2018-06-10T12:58:42.290Z,11.40
2018-06-10T13:01:10.288Z,12.47
2018-06-10T13:03:38.144Z,11.60
2018-06-10T13:06:08.002Z,11.63
2018-06-10T13:08:36.657Z,12.53
2018-06-10T13:11:05.236Z,12.40
2018-06-10T13:13:33.955Z,12.70
2018-06-10T13:16:01.640Z,12.73
2018-06-10T13:18:29.415Z,12.97
2018-06-10T13:20:57.307Z,11.77
2018-06-10T13:23:25.272Z,13.40
2018-06-10T13:25:52.960Z,13.03
2018-06-10T13:28:20.711Z,12.60
2018-06-10T13:30:49.654Z,11.30
2018-06-10T13:33:17.588Z,12.53
2018-06-10T13:35:45.461Z,13.13
2018-06-10T13:38:13.187Z,11.80
2018-06-10T13:40:41.333Z,12.20
2018-06-10T13:43:09.212Z,13.93
2018-06-10T13:45:38.091Z,13.30
2018-06-10T13:48:06.091Z,12.90
2018-06-10T13:50:33.922Z,12.17
2018-06-10T13:53:01.915Z,13.40
2018-06-10T13:55:29.975Z,13.40
2018-06-10T13:57:57.984Z,10.87
2018-06-10T14:00:25.820Z,13.60
2018-06-10T14:02:53.605Z,11.60
2018-06-10T14:05:21.568Z,11.37
2018-06-10T14:07:50.110Z,11.87
2018-06-10T14:10:17.984Z,11.20
2018-06-10T14:12:45.805Z,11.70
2018-06-10T14:15:13.814Z,11.53
2018-06-10T14:17:43.720Z,12.13
2018-06-10T14:20:11.570Z,11.10
2018-06-10T14:22:39.535Z,11.57
2018-06-10T14:25:07.568Z,11.60
2018-06-10T14:27:35.501Z,11.70
2018-06-10T14:30:03.399Z,11.10
2018-06-10T14:32:31.715Z,10.90
2018-06-10T14:34:59.703Z,12.97
2018-06-10T14:37:27.533Z,11.43
2018-06-10T14:39:56.001Z,13.70
2018-06-10T14:42:23.798Z,11.43
2018-06-10T14:44:52.285Z,10.87
2018-06-10T14:47:20.168Z,10.60
2018-06-10T14:49:48.043Z,10.33
2018-06-10T14:52:15.857Z,9.80
2018-06-10T14:54:43.713Z,10.40
2018-06-10T14:57:11.476Z,9.57
2018-06-10T14:59:40.095Z,9.90
2018-06-10T15:02:08.040Z,10.03
2018-06-10T15:04:36.660Z,9.07
2018-06-10T15:07:04.593Z,9.80
2018-06-10T15:09:32.901Z,10.20
2018-06-10T15:12:02.650Z,10.47
2018-06-10T15:14:31.949Z,9.70
2018-06-10T15:16:59.882Z,10.10
2018-06-10T15:19:27.892Z,10.10
2018-06-10T15:21:55.700Z,10.27
2018-06-10T15:24:23.792Z,11.47
2018-06-10T15:26:52.372Z,12.80
2018-06-10T15:29:20.400Z,11.70
2018-06-10T15:31:48.751Z,12.10
2018-06-10T15:34:16.590Z,11.80
2018-06-10T15:36:44.515Z,12.03
2018-06-10T15:39:13.519Z,11.07
2018-06-10T15:41:41.344Z,12.87
2018-06-10T15:44:09.066Z,12.73
2018-06-10T15:46:36.956Z,14.10
2018-06-10T15:49:04.897Z,13.93
2018-06-10T15:51:33.545Z,13.00
2018-06-10T15:54:02.976Z,13.17
2018-06-10T15:56:30.851Z,12.53
2018-06-10T15:58:58.607Z,13.40
2018-06-10T16:01:26.613Z,13.67
2018-06-10T16:03:54.548Z,13.60
2018-06-10T16:06:22.806Z,12.90
2018-06-10T16:08:52.094Z,12.80
2018-06-10T16:11:19.947Z,13.07
2018-06-10T16:13:47.888Z,13.67
2018-06-10T16:16:16.000Z,12.90
2018-06-10T16:18:44.560Z,13.50
2018-06-10T16:21:12.529Z,13.17
2018-06-10T16:23:40.555Z,14.67
2018-06-10T16:26:08.341Z,13.70
2018-06-10T16:28:36.803Z,13.03
2018-06-10T16:31:04.590Z,13.63
2018-06-10T16:33:32.327Z,13.47
2018-06-10T16:36:00.372Z,13.30
2018-06-10T16:38:29.000Z,13.60
2018-06-10T16:40:56.837Z,14.20
2018-06-10T16:43:25.228Z,12.70
2018-06-10T16:45:53.087Z,12.30
2018-06-10T16:48:20.776Z,13.27
2018-06-10T16:50:48.848Z,12.80
2018-06-10T16:53:16.841Z,12.80
2018-06-10T16:55:45.761Z,13.43
2018-06-10T16:58:13.749Z,14.20
2018-06-10T17:00:42.289Z,13.97
2018-06-10T17:03:10.248Z,15.97
2018-06-10T17:05:38.091Z,16.87
2018-06-10T17:08:06.390Z,15.13
2018-06-10T17:10:34.217Z,14.70
2018-06-10T17:13:02.121Z,15.50
2018-06-10T17:15:30.148Z,22.50
2018-06-10T17:17:57.961Z,16.10
2018-06-10T17:20:25.880Z,15.67
2018-06-10T17:22:53.718Z,14.50
2018-06-10T17:25:21.577Z,14.00
2018-06-10T17:27:49.340Z,14.10
2018-06-10T17:30:17.570Z,13.40
2018-06-10T17:32:45.612Z,13.20
2018-06-10T17:35:14.186Z,14.90
2018-06-10T17:37:42.080Z,14.13
2018-06-10T17:40:09.785Z,14.27
2018-06-10T17:42:37.821Z,14.83
2018-06-10T17:45:05.725Z,15.83
2018-06-10T17:47:33.770Z,15.17
2018-06-10T17:50:01.740Z,13.20
2018-06-10T17:52:30.674Z,15.17
2018-06-10T17:54:58.825Z,14.37
2018-06-10T17:57:26.843Z,13.90
2018-06-10T17:59:54.556Z,14.30
2018-06-10T18:02:23.211Z,15.13
2018-06-10T18:04:51.108Z,15.97
2018-06-10T18:07:19.060Z,16.17
2018-06-10T18:09:46.921Z,15.90
2018-06-10T18:12:14.777Z,15.60
2018-06-10T18:14:42.689Z,15.17
2018-06-10T18:17:10.570Z,15.40
2018-06-10T18:19:38.530Z,14.23
2018-06-10T18:22:06.552Z,14.90
2018-06-10T18:24:35.319Z,15.70
2018-06-10T18:27:03.277Z,16.13
2018-06-10T18:29:31.299Z,15.30
2018-06-10T18:31:59.203Z,14.30
2018-06-10T18:34:27.487Z,16.40
2018-06-10T18:36:55.542Z,16.17
2018-06-10T18:39:23.527Z,17.17
2018-06-10T18:41:51.454Z,16.40
2018-06-10T18:44:20.030Z,15.60
2018-06-10T18:46:47.965Z,15.90
2018-06-10T18:49:16.058Z,15.43
2018-06-10T18:51:43.845Z,17.20
2018-06-10T18:54:11.704Z,17.47
2018-06-10T18:56:39.642Z,17.10
2018-06-10T18:59:07.633Z,17.23
2018-06-10T19:01:35.557Z,15.97
2018-06-10T19:04:03.484Z,18.20
2018-06-10T19:06:31.496Z,16.40
2018-06-10T19:09:00.166Z,18.63
2018-06-10T19:11:28.107Z,19.50
2018-06-10T19:13:56.088Z,17.93
2018-06-10T19:16:23.906Z,20.70
2018-06-10T19:18:51.604Z,19.63
2018-06-10T19:21:19.680Z,17.70
2018-06-10T19:23:47.688Z,16.93
2018-06-10T19:26:15.703Z,15.90
2018-06-10T19:28:43.660Z,15.43
2018-06-10T19:31:11.589Z,16.40
2018-06-10T19:33:39.593Z,14.03
2018-06-10T19:36:08.143Z,12.70
2018-06-10T19:38:36.720Z,12.27
2018-06-10T19:41:04.713Z,13.00
2018-06-10T19:43:32.670Z,11.43
2018-06-10T19:46:00.627Z,5.47
2018-06-10T19:48:28.656Z,10.00
2018-06-10T19:50:56.467Z,12.20
2018-06-10T19:53:24.501Z,9.50
2018-06-10T19:55:52.488Z,10.10
2018-06-10T19:58:21.050Z,11.67
2018-06-10T20:00:49.446Z,10.63
2018-06-10T20:03:17.278Z,10.40
2018-06-10T20:05:45.380Z,9.50
2018-06-10T20:08:13.212Z,9.53
2018-06-10T20:10:41.086Z,10.10
2018-06-10T20:13:08.977Z,9.50
2018-06-10T20:15:36.835Z,11.10
2018-06-10T20:18:04.600Z,9.23
2018-06-10T20:20:32.504Z,9.83
2018-06-10T20:23:00.334Z,10.60
2018-06-10T20:25:28.356Z,10.03
2018-06-10T20:27:56.312Z,10.13
2018-06-10T20:30:24.622Z,10.00
2018-06-10T20:32:52.585Z,10.50
2018-06-10T20:35:20.419Z,10.60
2018-06-10T20:37:48.241Z,10.60
2018-06-10T20:40:16.200Z,10.50
2018-06-10T20:42:44.044Z,9.30
2018-06-10T20:45:11.609Z,8.90
2018-06-10T20:47:39.494Z,11.13
2018-06-10T20:50:07.492Z,9.53
2018-06-10T20:52:35.448Z,10.30
2018-06-10T20:55:03.308Z,8.30
2018-06-10T20:57:31.201Z,7.30
2018-06-10T20:59:58.912Z,8.57
2018-06-10T21:02:27.454Z,8.63
2018-06-10T21:04:55.145Z,8.10
2018-06-10T21:07:23.918Z,7.60
2018-06-10T21:09:51.889Z,7.57
2018-06-10T21:12:19.869Z,7.63
2018-06-10T21:14:47.689Z,8.70
2018-06-10T21:17:15.468Z,7.90
2018-06-10T21:19:43.013Z,8.67
2018-06-10T21:22:11.200Z,6.60
2018-06-10T21:24:39.670Z,8.67
2018-06-10T21:27:07.698Z,8.40
2018-06-10T21:29:35.296Z,7.23
2018-06-10T21:32:03.456Z,7.77
2018-06-10T21:34:31.185Z,7.30
2018-06-10T21:36:58.984Z,7.97
2018-06-10T21:39:26.565Z,7.43
2018-06-10T21:41:54.608Z,7.67
2018-06-10T21:44:23.222Z,7.87
2018-06-10T21:46:51.181Z,8.40
2018-06-10T21:49:19.037Z,10.20
2018-06-10T21:51:48.092Z,9.07
2018-06-10T21:54:15.987Z,8.17
2018-06-10T21:56:44.837Z,10.97
2018-06-10T21:59:13.209Z,9.77
2018-06-10T22:01:41.113Z,8.77
2018-06-10T22:04:09.025Z,9.90
2018-06-10T22:06:37.754Z,8.13
2018-06-10T22:09:06.788Z,8.97
2018-06-10T22:11:34.609Z,9.07
2018-06-10T22:14:02.882Z,9.70
2018-06-10T22:16:30.884Z,8.20
2018-06-10T22:18:58.829Z,8.30
2018-06-10T22:21:26.824Z,8.80
2018-06-10T22:23:54.676Z,9.00
2018-06-10T22:26:22.465Z,8.20
2018-06-10T22:28:50.407Z,8.77
2018-06-10T22:31:18.450Z,8.00
2018-06-10T22:33:46.246Z,7.87
2018-06-10T22:36:14.084Z,9.50
2018-06-10T22:38:41.926Z,7.77
2018-06-10T22:41:09.924Z,8.80
2018-06-10T22:43:37.872Z,8.33
2018-06-10T22:46:05.970Z,9.00
2018-06-10T22:48:33.906Z,9.10
2018-06-10T22:51:01.791Z,8.00
2018-06-10T22:53:34.775Z,10.40
2018-06-10T22:56:03.379Z,9.60
2018-06-10T22:58:31.290Z,9.70
2018-06-10T23:00:59.620Z,9.90
2018-06-10T23:03:27.472Z,9.33
2018-06-10T23:05:55.596Z,9.90
2018-06-10T23:08:24.488Z,10.17
2018-06-10T23:10:52.431Z,9.70
2018-06-10T23:13:20.405Z,8.40
2018-06-10T23:15:48.273Z,8.90
2018-06-10T23:18:16.073Z,9.00
2018-06-10T23:20:43.856Z,8.70
2018-06-10T23:23:11.930Z,8.50
2018-06-10T23:25:39.879Z,7.87
2018-06-10T23:28:07.708Z,7.50
2018-06-10T23:30:35.520Z,7.90
2018-06-10T23:33:03.377Z,9.03
2018-06-10T23:35:31.146Z,7.37
2018-06-10T23:37:59.955Z,9.53
2018-06-10T23:40:27.911Z,8.57
2018-06-10T23:42:56.149Z,8.10
2018-06-10T23:45:23.995Z,7.77
2018-06-10T23:47:52.457Z,8.07
2018-06-10T23:50:20.108Z,8.50
2018-06-10T23:52:47.869Z,8.80
2018-06-10T23:55:15.900Z,7.97
2018-06-10T23:57:44.451Z,8.70
